sensor_id;sensor_type;location;lat;lon;timestamp;temperature;humidity
56771;DHT22;42641;59.794;17.616;2023-12-28T00:00:47;-7.50;99.90
56771;DHT22;42641;59.794;17.616;2023-12-28T00:03:14;-7.50;99.90
56771;DHT22;42641;59.794;17.616;2023-12-28T00:05:40;-7.50;99.90
56771;DHT22;42641;59.794;17.616;2023-12-28T00:08:07;-7.60;99.90
56771;DHT22;42641;59.794;17.616;2023-12-28T00:10:33;-7.60;99.90
56771;DHT22;42641;59.794;17.616;2023-12-28T00:12:59;-7.60;99.90
56771;DHT22;42641;59.794;17.616;2023-12-28T00:15:26;-7.70;99.90
56771;DHT22;42641;59.794;17.616;2023-12-28T00:17:52;-7.70;99.90
56771;DHT22;42641;59.794;17.616;2023-12-28T00:20:19;-7.70;99.90
56771;DHT22;42641;59.794;17.616;2023-12-28T00:22:45;-7.60;99.90
56771;DHT22;42641;59.794;17.616;2023-12-28T00:25:12;-7.60;99.90
56771;DHT22;42641;59.794;17.616;2023-12-28T00:27:38;-7.60;99.90
56771;DHT22;42641;59.794;17.616;2023-12-28T00:30:05;-7.60;99.90
56771;DHT22;42641;59.794;17.616;2023-12-28T00:32:33;-7.60;99.90
56771;DHT22;42641;59.794;17.616;2023-12-28T00:34:59;-7.50;99.90
56771;DHT22;42641;59.794;17.616;2023-12-28T00:37:26;-7.40;99.90
56771;DHT22;42641;59.794;17.616;2023-12-28T00:39:52;-7.40;99.90
56771;DHT22;42641;59.794;17.616;2023-12-28T00:42:19;-7.30;99.90
56771;DHT22;42641;59.794;17.616;2023-12-28T00:44:45;-7.30;99.90
56771;DHT22;42641;59.794;17.616;2023-12-28T00:47:12;-7.30;99.90
56771;DHT22;42641;59.794;17.616;2023-12-28T00:49:38;-7.30;99.90
56771;DHT22;42641;59.794;17.616;2023-12-28T00:52:05;-7.20;99.90
56771;DHT22;42641;59.794;17.616;2023-12-28T00:54:31;-7.20;99.90
56771;DHT22;42641;59.794;17.616;2023-12-28T00:56:58;-7.20;99.90
56771;DHT22;42641;59.794;17.616;2023-12-28T00:59:24;-7.20;99.90
56771;DHT22;42641;59.794;17.616;2023-12-28T01:01:51;-7.10;99.90
56771;DHT22;42641;59.794;17.616;2023-12-28T01:04:17;-7.10;99.90
56771;DHT22;42641;59.794;17.616;2023-12-28T01:06:43;-7.10;99.90
56771;DHT22;42641;59.794;17.616;2023-12-28T01:09:10;-7.20;99.90
56771;DHT22;42641;59.794;17.616;2023-12-28T01:11:36;-7.10;99.90
56771;DHT22;42641;59.794;17.616;2023-12-28T01:14:03;-7.10;99.90
56771;DHT22;42641;59.794;17.616;2023-12-28T01:16:29;-7.00;99.90
56771;DHT22;42641;59.794;17.616;2023-12-28T01:18:56;-6.90;99.90
56771;DHT22;42641;59.794;17.616;2023-12-28T01:21:22;-6.80;99.90
56771;DHT22;42641;59.794;17.616;2023-12-28T01:23:51;-6.80;99.90
56771;DHT22;42641;59.794;17.616;2023-12-28T01:26:18;-6.70;99.90
56771;DHT22;42641;59.794;17.616;2023-12-28T01:28:44;-6.60;99.90
56771;DHT22;42641;59.794;17.616;2023-12-28T01:31:11;-6.50;99.90
56771;DHT22;42641;59.794;17.616;2023-12-28T01:33:37;-6.50;99.90
56771;DHT22;42641;59.794;17.616;2023-12-28T01:36:18;-6.50;99.90
56771;DHT22;42641;59.794;17.616;2023-12-28T01:38:45;-6.50;99.90
56771;DHT22;42641;59.794;17.616;2023-12-28T01:41:12;-6.60;99.90
56771;DHT22;42641;59.794;17.616;2023-12-28T01:43:39;-6.60;99.90
56771;DHT22;42641;59.794;17.616;2023-12-28T01:46:06;-6.60;99.90
56771;DHT22;42641;59.794;17.616;2023-12-28T01:48:34;-6.60;99.90
56771;DHT22;42641;59.794;17.616;2023-12-28T01:51:01;-6.60;99.90
56771;DHT22;42641;59.794;17.616;2023-12-28T01:53:29;-6.50;99.90
56771;DHT22;42641;59.794;17.616;2023-12-28T01:55:55;-6.40;99.90
56771;DHT22;42641;59.794;17.616;2023-12-28T01:58:22;-6.30;99.90
56771;DHT22;42641;59.794;17.616;2023-12-28T02:00:50;-6.30;99.90
56771;DHT22;42641;59.794;17.616;2023-12-28T02:03:19;-6.20;99.90
56771;DHT22;42641;59.794;17.616;2023-12-28T02:05:45;-6.10;99.90
56771;DHT22;42641;59.794;17.616;2023-12-28T02:08:12;-6.20;99.90
56771;DHT22;42641;59.794;17.616;2023-12-28T02:10:39;-6.30;99.90
56771;DHT22;42641;59.794;17.616;2023-12-28T02:13:06;-6.30;99.90
56771;DHT22;42641;59.794;17.616;2023-12-28T02:15:33;-6.30;99.90
56771;DHT22;42641;59.794;17.616;2023-12-28T02:18:05;-6.40;99.90
56771;DHT22;42641;59.794;17.616;2023-12-28T02:20:34;-6.50;99.90
56771;DHT22;42641;59.794;17.616;2023-12-28T02:23:01;-6.50;99.90
56771;DHT22;42641;59.794;17.616;2023-12-28T02:25:28;-6.50;99.90
56771;DHT22;42641;59.794;17.616;2023-12-28T02:27:55;-6.40;99.90
56771;DHT22;42641;59.794;17.616;2023-12-28T02:30:22;-6.40;99.90
56771;DHT22;42641;59.794;17.616;2023-12-28T02:35:28;-6.30;99.90
56771;DHT22;42641;59.794;17.616;2023-12-28T02:37:59;-6.30;99.90
56771;DHT22;42641;59.794;17.616;2023-12-28T02:40:28;-6.30;99.90
56771;DHT22;42641;59.794;17.616;2023-12-28T02:42:57;-6.30;99.90
56771;DHT22;42641;59.794;17.616;2023-12-28T02:45:24;-6.30;99.90
56771;DHT22;42641;59.794;17.616;2023-12-28T02:47:50;-6.30;99.90
56771;DHT22;42641;59.794;17.616;2023-12-28T02:50:17;-6.30;99.90
56771;DHT22;42641;59.794;17.616;2023-12-28T02:52:43;-6.30;99.90
56771;DHT22;42641;59.794;17.616;2023-12-28T02:55:09;-6.30;99.90
56771;DHT22;42641;59.794;17.616;2023-12-28T02:57:37;-6.30;99.90
56771;DHT22;42641;59.794;17.616;2023-12-28T03:00:07;-6.20;99.90
56771;DHT22;42641;59.794;17.616;2023-12-28T03:02:36;-6.20;99.90
56771;DHT22;42641;59.794;17.616;2023-12-28T03:05:06;-6.20;99.90
56771;DHT22;42641;59.794;17.616;2023-12-28T03:07:35;-6.20;99.90
56771;DHT22;42641;59.794;17.616;2023-12-28T03:10:03;-6.10;99.90
56771;DHT22;42641;59.794;17.616;2023-12-28T03:12:30;-6.10;99.90
56771;DHT22;42641;59.794;17.616;2023-12-28T03:14:57;-6.10;99.90
56771;DHT22;42641;59.794;17.616;2023-12-28T03:17:23;-6.00;99.90
56771;DHT22;42641;59.794;17.616;2023-12-28T03:19:49;-6.00;99.90
56771;DHT22;42641;59.794;17.616;2023-12-28T03:22:17;-6.00;99.90
56771;DHT22;42641;59.794;17.616;2023-12-28T03:24:46;-6.00;99.90
56771;DHT22;42641;59.794;17.616;2023-12-28T03:27:13;-6.00;99.90
56771;DHT22;42641;59.794;17.616;2023-12-28T03:29:41;-6.00;99.90
56771;DHT22;42641;59.794;17.616;2023-12-28T03:32:08;-5.90;99.90
56771;DHT22;42641;59.794;17.616;2023-12-28T03:34:34;-5.90;99.90
56771;DHT22;42641;59.794;17.616;2023-12-28T03:37:01;-5.90;99.90
56771;DHT22;42641;59.794;17.616;2023-12-28T03:39:28;-5.80;99.90
56771;DHT22;42641;59.794;17.616;2023-12-28T03:41:55;-5.80;99.90
56771;DHT22;42641;59.794;17.616;2023-12-28T03:44:21;-5.70;99.90
56771;DHT22;42641;59.794;17.616;2023-12-28T03:46:49;-5.70;99.90
56771;DHT22;42641;59.794;17.616;2023-12-28T03:49:19;-5.70;99.90
56771;DHT22;42641;59.794;17.616;2023-12-28T03:51:47;-5.70;99.90
56771;DHT22;42641;59.794;17.616;2023-12-28T03:54:19;-5.70;99.90
56771;DHT22;42641;59.794;17.616;2023-12-28T03:56:46;-5.70;99.90
56771;DHT22;42641;59.794;17.616;2023-12-28T03:59:13;-5.70;99.90
56771;DHT22;42641;59.794;17.616;2023-12-28T04:01:41;-5.60;99.90
56771;DHT22;42641;59.794;17.616;2023-12-28T04:04:07;-5.60;99.90
56771;DHT22;42641;59.794;17.616;2023-12-28T04:06:34;-5.60;99.90
56771;DHT22;42641;59.794;17.616;2023-12-28T04:09:04;-5.60;99.90
56771;DHT22;42641;59.794;17.616;2023-12-28T04:11:30;-5.50;99.90
56771;DHT22;42641;59.794;17.616;2023-12-28T04:13:57;-5.50;99.90
56771;DHT22;42641;59.794;17.616;2023-12-28T04:16:23;-5.50;99.90
56771;DHT22;42641;59.794;17.616;2023-12-28T04:18:50;-5.40;99.90
56771;DHT22;42641;59.794;17.616;2023-12-28T04:21:16;-5.40;99.90
56771;DHT22;42641;59.794;17.616;2023-12-28T04:23:43;-5.40;99.90
56771;DHT22;42641;59.794;17.616;2023-12-28T04:26:09;-5.30;99.90
56771;DHT22;42641;59.794;17.616;2023-12-28T04:28:36;-5.30;99.90
56771;DHT22;42641;59.794;17.616;2023-12-28T04:31:06;-5.30;99.90
56771;DHT22;42641;59.794;17.616;2023-12-28T04:33:33;-5.30;99.90
56771;DHT22;42641;59.794;17.616;2023-12-28T04:36:03;-5.30;99.90
56771;DHT22;42641;59.794;17.616;2023-12-28T04:38:31;-5.30;99.90
56771;DHT22;42641;59.794;17.616;2023-12-28T04:40:59;-5.30;99.90
56771;DHT22;42641;59.794;17.616;2023-12-28T04:43:26;-5.30;99.90
56771;DHT22;42641;59.794;17.616;2023-12-28T04:45:53;-5.20;99.90
56771;DHT22;42641;59.794;17.616;2023-12-28T04:48:19;-5.20;99.90
56771;DHT22;42641;59.794;17.616;2023-12-28T04:50:48;-5.20;99.90
56771;DHT22;42641;59.794;17.616;2023-12-28T04:53:15;-5.30;99.90
56771;DHT22;42641;59.794;17.616;2023-12-28T04:55:42;-5.40;99.90
56771;DHT22;42641;59.794;17.616;2023-12-28T04:58:10;-5.30;99.90
56771;DHT22;42641;59.794;17.616;2023-12-28T05:00:37;-5.30;99.90
56771;DHT22;42641;59.794;17.616;2023-12-28T05:03:04;-5.30;99.90
56771;DHT22;42641;59.794;17.616;2023-12-28T05:05:30;-5.40;99.90
56771;DHT22;42641;59.794;17.616;2023-12-28T05:07:57;-5.40;99.90
56771;DHT22;42641;59.794;17.616;2023-12-28T05:10:23;-5.30;99.90
56771;DHT22;42641;59.794;17.616;2023-12-28T05:12:49;-5.30;99.90
56771;DHT22;42641;59.794;17.616;2023-12-28T05:15:16;-5.30;99.90
56771;DHT22;42641;59.794;17.616;2023-12-28T05:17:44;-5.20;99.90
56771;DHT22;42641;59.794;17.616;2023-12-28T05:20:10;-5.20;99.90
56771;DHT22;42641;59.794;17.616;2023-12-28T05:22:37;-5.30;99.90
56771;DHT22;42641;59.794;17.616;2023-12-28T05:25:04;-5.30;99.90
56771;DHT22;42641;59.794;17.616;2023-12-28T05:27:30;-5.20;99.90
56771;DHT22;42641;59.794;17.616;2023-12-28T05:29:57;-5.10;99.90
56771;DHT22;42641;59.794;17.616;2023-12-28T05:32:23;-5.10;99.90
56771;DHT22;42641;59.794;17.616;2023-12-28T05:34:49;-5.20;99.90
56771;DHT22;42641;59.794;17.616;2023-12-28T05:37:16;-5.10;99.90
56771;DHT22;42641;59.794;17.616;2023-12-28T05:39:42;-5.10;99.90
56771;DHT22;42641;59.794;17.616;2023-12-28T05:42:09;-5.00;99.90
56771;DHT22;42641;59.794;17.616;2023-12-28T05:44:35;-5.00;99.90
56771;DHT22;42641;59.794;17.616;2023-12-28T05:47:02;-5.00;99.90
56771;DHT22;42641;59.794;17.616;2023-12-28T05:49:30;-4.90;99.90
56771;DHT22;42641;59.794;17.616;2023-12-28T05:51:56;-4.80;99.90
56771;DHT22;42641;59.794;17.616;2023-12-28T05:54:23;-4.80;99.90
56771;DHT22;42641;59.794;17.616;2023-12-28T05:56:49;-4.80;99.90
56771;DHT22;42641;59.794;17.616;2023-12-28T05:59:15;-4.70;99.90
56771;DHT22;42641;59.794;17.616;2023-12-28T06:01:43;-4.60;99.90
56771;DHT22;42641;59.794;17.616;2023-12-28T06:04:10;-4.50;99.90
56771;DHT22;42641;59.794;17.616;2023-12-28T06:06:37;-4.40;99.90
56771;DHT22;42641;59.794;17.616;2023-12-28T06:09:04;-4.30;99.90
56771;DHT22;42641;59.794;17.616;2023-12-28T06:11:30;-4.30;99.90
56771;DHT22;42641;59.794;17.616;2023-12-28T06:13:57;-4.20;99.90
56771;DHT22;42641;59.794;17.616;2023-12-28T06:16:23;-4.20;99.90
56771;DHT22;42641;59.794;17.616;2023-12-28T06:18:51;-4.10;99.90
56771;DHT22;42641;59.794;17.616;2023-12-28T06:21:18;-4.10;99.90
56771;DHT22;42641;59.794;17.616;2023-12-28T06:23:44;-4.00;99.90
56771;DHT22;42641;59.794;17.616;2023-12-28T06:26:10;-4.00;99.90
56771;DHT22;42641;59.794;17.616;2023-12-28T06:28:37;-3.90;99.90
56771;DHT22;42641;59.794;17.616;2023-12-28T06:31:03;-3.90;99.90
56771;DHT22;42641;59.794;17.616;2023-12-28T06:33:30;-3.90;99.90
56771;DHT22;42641;59.794;17.616;2023-12-28T06:35:57;-3.90;99.90
56771;DHT22;42641;59.794;17.616;2023-12-28T06:38:26;-3.80;99.90
56771;DHT22;42641;59.794;17.616;2023-12-28T06:40:52;-3.90;99.90
56771;DHT22;42641;59.794;17.616;2023-12-28T06:43:19;-3.90;99.90
56771;DHT22;42641;59.794;17.616;2023-12-28T06:45:45;-3.90;99.90
56771;DHT22;42641;59.794;17.616;2023-12-28T06:48:12;-3.90;99.90
56771;DHT22;42641;59.794;17.616;2023-12-28T06:50:38;-3.90;99.90
56771;DHT22;42641;59.794;17.616;2023-12-28T06:53:04;-3.80;99.90
56771;DHT22;42641;59.794;17.616;2023-12-28T06:55:31;-3.80;99.90
56771;DHT22;42641;59.794;17.616;2023-12-28T06:57:57;-3.80;99.90
56771;DHT22;42641;59.794;17.616;2023-12-28T07:00:24;-3.80;99.90
56771;DHT22;42641;59.794;17.616;2023-12-28T07:02:50;-3.80;99.90
56771;DHT22;42641;59.794;17.616;2023-12-28T07:05:17;-3.70;99.90
56771;DHT22;42641;59.794;17.616;2023-12-28T07:07:43;-3.70;99.90
56771;DHT22;42641;59.794;17.616;2023-12-28T07:10:09;-3.70;99.90
56771;DHT22;42641;59.794;17.616;2023-12-28T07:12:36;-3.60;99.90
56771;DHT22;42641;59.794;17.616;2023-12-28T07:15:02;-3.50;99.90
56771;DHT22;42641;59.794;17.616;2023-12-28T07:17:29;-3.50;99.90
56771;DHT22;42641;59.794;17.616;2023-12-28T07:19:55;-3.40;99.90
56771;DHT22;42641;59.794;17.616;2023-12-28T07:22:22;-3.40;99.90
56771;DHT22;42641;59.794;17.616;2023-12-28T07:24:49;-3.40;99.90
56771;DHT22;42641;59.794;17.616;2023-12-28T07:27:15;-3.30;99.90
56771;DHT22;42641;59.794;17.616;2023-12-28T07:29:41;-3.20;99.90
56771;DHT22;42641;59.794;17.616;2023-12-28T07:32:08;-3.20;99.90
56771;DHT22;42641;59.794;17.616;2023-12-28T07:34:36;-3.10;99.90
56771;DHT22;42641;59.794;17.616;2023-12-28T07:37:02;-3.10;99.90
56771;DHT22;42641;59.794;17.616;2023-12-28T07:39:29;-3.00;99.90
56771;DHT22;42641;59.794;17.616;2023-12-28T07:41:55;-3.00;99.90
56771;DHT22;42641;59.794;17.616;2023-12-28T07:44:22;-3.00;99.90
56771;DHT22;42641;59.794;17.616;2023-12-28T07:46:49;-3.00;99.90
56771;DHT22;42641;59.794;17.616;2023-12-28T07:49:15;-2.90;99.90
56771;DHT22;42641;59.794;17.616;2023-12-28T07:51:42;-2.90;99.90
56771;DHT22;42641;59.794;17.616;2023-12-28T07:54:08;-2.90;99.90
56771;DHT22;42641;59.794;17.616;2023-12-28T07:56:34;-2.80;99.90
56771;DHT22;42641;59.794;17.616;2023-12-28T07:59:04;-2.70;99.90
56771;DHT22;42641;59.794;17.616;2023-12-28T08:01:32;-2.50;99.90
56771;DHT22;42641;59.794;17.616;2023-12-28T08:03:59;-2.40;99.90
56771;DHT22;42641;59.794;17.616;2023-12-28T08:06:26;-2.20;99.90
56771;DHT22;42641;59.794;17.616;2023-12-28T08:08:53;-2.10;99.90
56771;DHT22;42641;59.794;17.616;2023-12-28T08:11:20;-2.00;99.90
56771;DHT22;42641;59.794;17.616;2023-12-28T08:13:46;-2.00;99.90
56771;DHT22;42641;59.794;17.616;2023-12-28T08:16:13;-1.90;99.90
56771;DHT22;42641;59.794;17.616;2023-12-28T08:18:39;-1.90;99.90
56771;DHT22;42641;59.794;17.616;2023-12-28T08:21:05;-1.80;99.90
56771;DHT22;42641;59.794;17.616;2023-12-28T08:23:32;-1.80;99.90
56771;DHT22;42641;59.794;17.616;2023-12-28T08:25:58;-1.70;99.90
56771;DHT22;42641;59.794;17.616;2023-12-28T08:28:24;-1.60;99.90
56771;DHT22;42641;59.794;17.616;2023-12-28T08:30:51;-1.60;99.90
56771;DHT22;42641;59.794;17.616;2023-12-28T08:33:17;-1.60;99.90
56771;DHT22;42641;59.794;17.616;2023-12-28T08:35:44;-1.60;99.90
56771;DHT22;42641;59.794;17.616;2023-12-28T08:38:11;-1.50;99.90
56771;DHT22;42641;59.794;17.616;2023-12-28T08:40:37;-1.50;99.90
56771;DHT22;42641;59.794;17.616;2023-12-28T08:43:04;-1.40;99.90
56771;DHT22;42641;59.794;17.616;2023-12-28T08:45:30;-1.40;99.90
56771;DHT22;42641;59.794;17.616;2023-12-28T08:47:57;-1.30;99.90
56771;DHT22;42641;59.794;17.616;2023-12-28T08:50:23;-1.30;99.90
56771;DHT22;42641;59.794;17.616;2023-12-28T08:52:50;-1.20;99.90
56771;DHT22;42641;59.794;17.616;2023-12-28T08:55:16;-1.20;99.90
56771;DHT22;42641;59.794;17.616;2023-12-28T08:57:42;-1.10;99.90
56771;DHT22;42641;59.794;17.616;2023-12-28T09:00:10;-1.10;99.90
56771;DHT22;42641;59.794;17.616;2023-12-28T09:02:36;-1.10;99.90
56771;DHT22;42641;59.794;17.616;2023-12-28T09:05:03;-1.10;99.90
56771;DHT22;42641;59.794;17.616;2023-12-28T09:07:30;-1.00;99.90
56771;DHT22;42641;59.794;17.616;2023-12-28T09:09:56;-1.00;99.90
56771;DHT22;42641;59.794;17.616;2023-12-28T09:12:23;-1.00;99.90
56771;DHT22;42641;59.794;17.616;2023-12-28T09:14:49;-0.90;99.90
56771;DHT22;42641;59.794;17.616;2023-12-28T09:17:21;-0.90;99.90
56771;DHT22;42641;59.794;17.616;2023-12-28T09:19:48;-0.90;99.90
56771;DHT22;42641;59.794;17.616;2023-12-28T09:22:14;-0.80;99.90
56771;DHT22;42641;59.794;17.616;2023-12-28T09:24:41;-0.80;99.90
56771;DHT22;42641;59.794;17.616;2023-12-28T09:27:07;-0.80;99.90
56771;DHT22;42641;59.794;17.616;2023-12-28T09:29:35;-0.70;99.90
56771;DHT22;42641;59.794;17.616;2023-12-28T09:32:01;-0.70;99.90
56771;DHT22;42641;59.794;17.616;2023-12-28T09:34:28;-0.60;99.90
56771;DHT22;42641;59.794;17.616;2023-12-28T09:36:54;-0.60;99.90
56771;DHT22;42641;59.794;17.616;2023-12-28T09:39:20;-0.60;99.90
56771;DHT22;42641;59.794;17.616;2023-12-28T09:44:40;-0.50;99.90
56771;DHT22;42641;59.794;17.616;2023-12-28T09:47:10;-0.50;99.90
56771;DHT22;42641;59.794;17.616;2023-12-28T09:49:39;-0.50;99.90
56771;DHT22;42641;59.794;17.616;2023-12-28T09:52:06;-0.50;99.90
56771;DHT22;42641;59.794;17.616;2023-12-28T09:54:34;-0.40;99.90
56771;DHT22;42641;59.794;17.616;2023-12-28T09:57:01;-0.40;99.90
56771;DHT22;42641;59.794;17.616;2023-12-28T09:59:28;-0.30;99.90
56771;DHT22;42641;59.794;17.616;2023-12-28T10:01:56;-0.30;99.90
56771;DHT22;42641;59.794;17.616;2023-12-28T10:04:23;-0.20;99.90
56771;DHT22;42641;59.794;17.616;2023-12-28T10:06:49;-0.10;99.90
56771;DHT22;42641;59.794;17.616;2023-12-28T10:09:17;-0.10;99.90
56771;DHT22;42641;59.794;17.616;2023-12-28T10:11:43;0.00;99.90
56771;DHT22;42641;59.794;17.616;2023-12-28T10:14:09;0.00;99.90
56771;DHT22;42641;59.794;17.616;2023-12-28T10:16:40;0.00;99.90
56771;DHT22;42641;59.794;17.616;2023-12-28T10:19:07;0.00;99.90
56771;DHT22;42641;59.794;17.616;2023-12-28T10:21:34;0.10;99.90
56771;DHT22;42641;59.794;17.616;2023-12-28T10:24:02;0.10;99.90
56771;DHT22;42641;59.794;17.616;2023-12-28T10:26:28;0.10;99.90
56771;DHT22;42641;59.794;17.616;2023-12-28T10:29:01;0.10;99.90
56771;DHT22;42641;59.794;17.616;2023-12-28T10:31:29;0.10;99.90
56771;DHT22;42641;59.794;17.616;2023-12-28T10:33:59;0.10;99.90
56771;DHT22;42641;59.794;17.616;2023-12-28T10:36:28;0.10;99.90
56771;DHT22;42641;59.794;17.616;2023-12-28T10:38:57;0.20;99.90
56771;DHT22;42641;59.794;17.616;2023-12-28T10:41:27;0.20;99.90
56771;DHT22;42641;59.794;17.616;2023-12-28T10:46:26;0.30;99.90
56771;DHT22;42641;59.794;17.616;2023-12-28T10:49:20;0.30;99.90
56771;DHT22;42641;59.794;17.616;2023-12-28T10:51:49;0.30;99.90
56771;DHT22;42641;59.794;17.616;2023-12-28T10:57:27;0.40;99.90
56771;DHT22;42641;59.794;17.616;2023-12-28T11:00:14;0.40;99.90
56771;DHT22;42641;59.794;17.616;2023-12-28T11:02:51;0.50;99.90
56771;DHT22;42641;59.794;17.616;2023-12-28T11:05:21;0.50;99.90
56771;DHT22;42641;59.794;17.616;2023-12-28T11:07:50;0.50;99.90
56771;DHT22;42641;59.794;17.616;2023-12-28T11:10:22;0.60;99.90
56771;DHT22;42641;59.794;17.616;2023-12-28T11:12:51;0.60;99.90
56771;DHT22;42641;59.794;17.616;2023-12-28T11:15:19;0.60;99.90
56771;DHT22;42641;59.794;17.616;2023-12-28T11:17:47;0.70;99.90
56771;DHT22;42641;59.794;17.616;2023-12-28T11:20:14;0.70;99.90
56771;DHT22;42641;59.794;17.616;2023-12-28T11:22:42;0.80;99.90
56771;DHT22;42641;59.794;17.616;2023-12-28T11:25:17;0.80;99.90
56771;DHT22;42641;59.794;17.616;2023-12-28T11:27:45;0.80;99.90
56771;DHT22;42641;59.794;17.616;2023-12-28T11:30:12;0.80;99.90
56771;DHT22;42641;59.794;17.616;2023-12-28T11:32:43;0.80;99.90
56771;DHT22;42641;59.794;17.616;2023-12-28T11:35:13;0.80;99.90
56771;DHT22;42641;59.794;17.616;2023-12-28T11:37:46;0.80;99.90
56771;DHT22;42641;59.794;17.616;2023-12-28T11:40:18;0.80;99.90
56771;DHT22;42641;59.794;17.616;2023-12-28T11:42:53;0.90;99.90
56771;DHT22;42641;59.794;17.616;2023-12-28T11:45:21;1.00;99.90
56771;DHT22;42641;59.794;17.616;2023-12-28T11:47:59;1.00;99.90
56771;DHT22;42641;59.794;17.616;2023-12-28T11:50:26;1.00;99.90
56771;DHT22;42641;59.794;17.616;2023-12-28T11:52:53;1.10;99.90
56771;DHT22;42641;59.794;17.616;2023-12-28T11:55:22;1.10;99.90
56771;DHT22;42641;59.794;17.616;2023-12-28T11:57:51;1.10;99.90
56771;DHT22;42641;59.794;17.616;2023-12-28T12:00:18;1.20;99.90
56771;DHT22;42641;59.794;17.616;2023-12-28T12:02:46;1.20;99.90
56771;DHT22;42641;59.794;17.616;2023-12-28T12:05:14;1.30;99.90
56771;DHT22;42641;59.794;17.616;2023-12-28T12:07:41;1.30;99.90
56771;DHT22;42641;59.794;17.616;2023-12-28T12:10:07;1.30;99.90
56771;DHT22;42641;59.794;17.616;2023-12-28T12:12:34;1.40;99.90
56771;DHT22;42641;59.794;17.616;2023-12-28T12:15:00;1.40;99.90
56771;DHT22;42641;59.794;17.616;2023-12-28T12:17:27;1.50;99.90
56771;DHT22;42641;59.794;17.616;2023-12-28T12:19:55;1.60;99.90
56771;DHT22;42641;59.794;17.616;2023-12-28T12:22:21;1.60;99.90
56771;DHT22;42641;59.794;17.616;2023-12-28T12:24:49;1.60;99.90
56771;DHT22;42641;59.794;17.616;2023-12-28T12:27:17;1.60;99.90
56771;DHT22;42641;59.794;17.616;2023-12-28T12:29:44;1.70;99.90
56771;DHT22;42641;59.794;17.616;2023-12-28T12:32:10;1.70;99.90
56771;DHT22;42641;59.794;17.616;2023-12-28T12:34:38;1.70;99.90
56771;DHT22;42641;59.794;17.616;2023-12-28T12:37:06;1.70;99.90
56771;DHT22;42641;59.794;17.616;2023-12-28T12:39:32;1.80;99.90
56771;DHT22;42641;59.794;17.616;2023-12-28T12:41:59;1.80;99.90
56771;DHT22;42641;59.794;17.616;2023-12-28T12:44:25;1.80;99.90
56771;DHT22;42641;59.794;17.616;2023-12-28T12:47:01;1.80;99.90
56771;DHT22;42641;59.794;17.616;2023-12-28T12:49:28;1.80;99.90
56771;DHT22;42641;59.794;17.616;2023-12-28T12:51:55;1.80;99.90
56771;DHT22;42641;59.794;17.616;2023-12-28T12:54:21;1.90;99.90
56771;DHT22;42641;59.794;17.616;2023-12-28T12:56:50;1.90;99.90
56771;DHT22;42641;59.794;17.616;2023-12-28T12:59:16;1.90;99.90
56771;DHT22;42641;59.794;17.616;2023-12-28T13:01:44;1.90;99.90
56771;DHT22;42641;59.794;17.616;2023-12-28T13:04:11;2.00;99.90
56771;DHT22;42641;59.794;17.616;2023-12-28T13:06:38;2.00;99.90
56771;DHT22;42641;59.794;17.616;2023-12-28T13:09:05;2.00;99.90
56771;DHT22;42641;59.794;17.616;2023-12-28T13:11:36;2.00;99.90
56771;DHT22;42641;59.794;17.616;2023-12-28T13:14:02;2.10;99.90
56771;DHT22;42641;59.794;17.616;2023-12-28T13:16:31;2.10;99.90
56771;DHT22;42641;59.794;17.616;2023-12-28T13:18:58;2.10;99.90
56771;DHT22;42641;59.794;17.616;2023-12-28T13:21:24;2.20;99.90
56771;DHT22;42641;59.794;17.616;2023-12-28T13:23:51;2.20;99.90
56771;DHT22;42641;59.794;17.616;2023-12-28T13:26:17;2.20;99.90
56771;DHT22;42641;59.794;17.616;2023-12-28T13:28:43;2.20;99.90
56771;DHT22;42641;59.794;17.616;2023-12-28T13:31:10;2.20;99.90
56771;DHT22;42641;59.794;17.616;2023-12-28T13:33:36;2.20;99.90
56771;DHT22;42641;59.794;17.616;2023-12-28T13:36:03;2.20;99.90
56771;DHT22;42641;59.794;17.616;2023-12-28T13:38:29;2.20;99.90
56771;DHT22;42641;59.794;17.616;2023-12-28T13:40:57;2.20;99.90
56771;DHT22;42641;59.794;17.616;2023-12-28T13:43:23;2.20;99.90
56771;DHT22;42641;59.794;17.616;2023-12-28T13:45:50;2.20;99.90
56771;DHT22;42641;59.794;17.616;2023-12-28T13:48:16;2.20;99.90
56771;DHT22;42641;59.794;17.616;2023-12-28T13:50:43;2.20;99.90
56771;DHT22;42641;59.794;17.616;2023-12-28T13:53:10;2.20;99.90
56771;DHT22;42641;59.794;17.616;2023-12-28T13:55:36;2.20;99.90
56771;DHT22;42641;59.794;17.616;2023-12-28T13:58:02;2.20;99.90
56771;DHT22;42641;59.794;17.616;2023-12-28T14:00:30;2.30;99.90
56771;DHT22;42641;59.794;17.616;2023-12-28T14:02:57;2.30;99.90
56771;DHT22;42641;59.794;17.616;2023-12-28T14:05:25;2.30;99.90
56771;DHT22;42641;59.794;17.616;2023-12-28T14:07:51;2.30;99.90
56771;DHT22;42641;59.794;17.616;2023-12-28T14:10:18;2.40;99.90
56771;DHT22;42641;59.794;17.616;2023-12-28T14:12:44;2.30;99.90
56771;DHT22;42641;59.794;17.616;2023-12-28T14:15:11;2.30;99.90
56771;DHT22;42641;59.794;17.616;2023-12-28T14:17:37;2.30;99.90
56771;DHT22;42641;59.794;17.616;2023-12-28T14:20:04;2.30;99.90
56771;DHT22;42641;59.794;17.616;2023-12-28T14:22:33;2.40;99.90
56771;DHT22;42641;59.794;17.616;2023-12-28T14:24:59;2.40;99.90
56771;DHT22;42641;59.794;17.616;2023-12-28T14:27:29;2.30;99.90
56771;DHT22;42641;59.794;17.616;2023-12-28T14:29:56;2.30;99.90
56771;DHT22;42641;59.794;17.616;2023-12-28T14:32:23;2.30;99.90
56771;DHT22;42641;59.794;17.616;2023-12-28T14:34:50;2.30;99.90
56771;DHT22;42641;59.794;17.616;2023-12-28T14:37:16;2.40;99.90
56771;DHT22;42641;59.794;17.616;2023-12-28T14:39:43;2.40;99.90
56771;DHT22;42641;59.794;17.616;2023-12-28T14:42:10;2.40;99.90
56771;DHT22;42641;59.794;17.616;2023-12-28T14:44:36;2.40;99.90
56771;DHT22;42641;59.794;17.616;2023-12-28T14:47:03;2.40;99.90
56771;DHT22;42641;59.794;17.616;2023-12-28T14:49:30;2.40;99.90
56771;DHT22;42641;59.794;17.616;2023-12-28T14:51:56;2.40;99.90
56771;DHT22;42641;59.794;17.616;2023-12-28T14:54:23;2.40;99.90
56771;DHT22;42641;59.794;17.616;2023-12-28T14:56:49;2.40;99.90
56771;DHT22;42641;59.794;17.616;2023-12-28T14:59:16;2.40;99.90
56771;DHT22;42641;59.794;17.616;2023-12-28T15:01:42;2.40;99.90
56771;DHT22;42641;59.794;17.616;2023-12-28T15:04:09;2.40;99.90
56771;DHT22;42641;59.794;17.616;2023-12-28T15:06:35;2.30;99.90
56771;DHT22;42641;59.794;17.616;2023-12-28T15:09:02;2.40;99.90
56771;DHT22;42641;59.794;17.616;2023-12-28T15:11:28;2.40;99.90
56771;DHT22;42641;59.794;17.616;2023-12-28T15:13:55;2.40;99.90
56771;DHT22;42641;59.794;17.616;2023-12-28T15:16:22;2.30;99.90
56771;DHT22;42641;59.794;17.616;2023-12-28T15:18:48;2.30;99.90
56771;DHT22;42641;59.794;17.616;2023-12-28T15:21:15;2.40;99.90
56771;DHT22;42641;59.794;17.616;2023-12-28T15:23:41;2.40;99.90
56771;DHT22;42641;59.794;17.616;2023-12-28T15:26:08;2.40;99.90
56771;DHT22;42641;59.794;17.616;2023-12-28T15:28:34;2.50;99.90
56771;DHT22;42641;59.794;17.616;2023-12-28T15:31:01;2.50;99.90